createdAt,value
2023-03-26T00:00:02.797Z,950.92
2023-03-26T00:00:13.841Z,950.90
2023-03-26T00:00:24.816Z,950.89
2023-03-26T00:00:35.572Z,950.89
2023-03-26T00:00:46.614Z,950.89
2023-03-26T00:00:57.584Z,950.89
2023-03-26T00:01:08.347Z,950.90
2023-03-26T00:01:19.415Z,950.88
2023-03-26T00:01:30.369Z,950.88
2023-03-26T00:01:41.162Z,950.87
2023-03-26T00:01:52.218Z,950.88
2023-03-26T00:02:03.226Z,950.88
2023-03-26T00:02:14.012Z,950.87
2023-03-26T00:02:25.085Z,950.87
2023-03-26T00:02:36.102Z,950.86
2023-03-26T00:02:46.860Z,950.86
2023-03-26T00:02:57.955Z,950.85
2023-03-26T00:03:08.947Z,950.86
2023-03-26T00:03:19.678Z,950.87
2023-03-26T00:03:30.710Z,950.85
2023-03-26T00:03:41.681Z,950.86
2023-03-26T00:03:52.446Z,950.85
2023-03-26T00:04:03.490Z,950.85
2023-03-26T00:04:14.462Z,950.84
2023-03-26T00:04:25.217Z,950.83
2023-03-26T00:04:36.263Z,950.82
2023-03-26T00:04:47.229Z,950.81
2023-03-26T00:04:57.998Z,950.81
2023-03-26T00:05:09.102Z,950.81
2023-03-26T00:05:20.057Z,950.80
2023-03-26T00:05:30.872Z,950.79
2023-03-26T00:05:41.932Z,950.80
2023-03-26T00:05:53.041Z,950.80
2023-03-26T00:06:03.859Z,950.80
2023-03-26T00:06:14.891Z,950.80
2023-03-26T00:06:25.929Z,950.79
2023-03-26T00:06:36.650Z,950.79
2023-03-26T00:06:47.679Z,950.79
2023-03-26T00:06:58.643Z,950.77
2023-03-26T00:07:09.410Z,950.76
2023-03-26T00:07:20.452Z,950.76
2023-03-26T00:07:31.418Z,950.77
2023-03-26T00:07:42.188Z,950.77
2023-03-26T00:07:53.239Z,950.77
2023-03-26T00:08:04.200Z,950.76
2023-03-26T00:08:14.966Z,950.75
2023-03-26T00:08:26.042Z,950.75
2023-03-26T00:08:36.979Z,950.76
2023-03-26T00:08:47.742Z,950.76
2023-03-26T00:08:58.796Z,950.76
2023-03-26T00:09:09.752Z,950.76
2023-03-26T00:09:20.524Z,950.76
2023-03-26T00:09:31.574Z,950.77
2023-03-26T00:09:42.544Z,950.78
2023-03-26T00:09:53.303Z,950.78
2023-03-26T00:10:04.351Z,950.77
2023-03-26T00:10:15.320Z,950.76
2023-03-26T00:10:26.094Z,950.77
2023-03-26T00:10:37.129Z,950.77
2023-03-26T00:10:48.099Z,950.76
2023-03-26T00:11:00.955Z,950.75
2023-03-26T00:11:09.446Z,950.75
2023-03-26T00:11:20.467Z,950.75
2023-03-26T00:11:31.230Z,950.76
2023-03-26T00:11:42.279Z,950.75
2023-03-26T00:11:53.251Z,950.76
2023-03-26T00:12:04.020Z,950.77
2023-03-26T00:12:15.087Z,950.78
2023-03-26T00:12:26.034Z,950.77
2023-03-26T00:12:36.792Z,950.76
2023-03-26T00:12:47.842Z,950.78
2023-03-26T00:12:58.802Z,950.79
2023-03-26T00:13:09.567Z,950.80
2023-03-26T00:13:20.612Z,950.78
2023-03-26T00:13:31.576Z,950.77
2023-03-26T00:13:42.340Z,950.76
2023-03-26T00:13:53.480Z,950.77
2023-03-26T00:14:04.415Z,950.77
2023-03-26T00:14:15.180Z,950.77
2023-03-26T00:14:26.228Z,950.78
2023-03-26T00:14:37.197Z,950.77
2023-03-26T00:14:47.956Z,950.77
2023-03-26T00:14:59.000Z,950.74
2023-03-26T00:15:09.958Z,950.75
2023-03-26T00:15:20.726Z,950.74
2023-03-26T00:15:31.771Z,950.75
2023-03-26T00:15:42.742Z,950.74
2023-03-26T00:15:53.760Z,950.73
2023-03-26T00:16:04.429Z,950.72
2023-03-26T00:16:15.411Z,950.71
2023-03-26T00:16:26.216Z,950.71
2023-03-26T00:16:36.794Z,950.71
2023-03-26T00:16:47.879Z,950.72
2023-03-26T00:16:58.610Z,950.71
2023-03-26T00:17:09.660Z,950.71
2023-03-26T00:17:20.622Z,950.70
2023-03-26T00:17:31.407Z,950.69
2023-03-26T00:17:42.468Z,950.68
2023-03-26T00:17:53.470Z,950.68
2023-03-26T00:18:04.233Z,950.68
2023-03-26T00:18:15.265Z,950.69
2023-03-26T00:18:26.210Z,950.69
2023-03-26T00:18:36.988Z,950.69
2023-03-26T00:18:48.021Z,950.67
2023-03-26T00:18:58.988Z,950.68
2023-03-26T00:19:09.752Z,950.68
2023-03-26T00:19:20.803Z,950.66
2023-03-26T00:19:31.761Z,950.66
2023-03-26T00:19:42.534Z,950.67
2023-03-26T00:19:53.592Z,950.66
2023-03-26T00:20:04.554Z,950.64
2023-03-26T00:20:15.324Z,950.64
2023-03-26T00:20:26.370Z,950.63
2023-03-26T00:20:37.330Z,950.63
2023-03-26T00:20:48.106Z,950.62
2023-03-26T00:20:59.144Z,950.63
2023-03-26T00:21:10.108Z,950.64
2023-03-26T00:21:20.890Z,950.65
2023-03-26T00:21:31.933Z,950.65
2023-03-26T00:21:42.901Z,950.64
2023-03-26T00:21:53.678Z,950.66
2023-03-26T00:22:04.726Z,950.67
2023-03-26T00:22:15.681Z,950.67
2023-03-26T00:22:26.447Z,950.67
2023-03-26T00:22:37.494Z,950.69
2023-03-26T00:22:48.459Z,950.69
2023-03-26T00:22:59.225Z,950.70
2023-03-26T00:23:10.266Z,950.69
2023-03-26T00:23:21.233Z,950.66
2023-03-26T00:23:32.003Z,950.66
2023-03-26T00:23:43.042Z,950.68
2023-03-26T00:23:54.008Z,950.67
2023-03-26T00:24:04.835Z,950.67
2023-03-26T00:24:15.826Z,950.67
2023-03-26T00:24:26.790Z,950.67
2023-03-26T00:24:37.548Z,950.68
2023-03-26T00:24:48.595Z,950.70
2023-03-26T00:24:59.565Z,950.70
2023-03-26T00:25:10.324Z,950.71
2023-03-26T00:25:21.383Z,950.70
2023-03-26T00:25:32.339Z,950.71
2023-03-26T00:25:43.103Z,950.71
2023-03-26T00:25:54.391Z,950.71
2023-03-26T00:26:05.002Z,950.71
2023-03-26T00:26:15.768Z,950.71
2023-03-26T00:26:26.825Z,950.71
2023-03-26T00:26:37.826Z,950.70
2023-03-26T00:26:48.655Z,950.70
2023-03-26T00:26:59.202Z,950.71
2023-03-26T00:27:10.181Z,950.72
2023-03-26T00:27:20.940Z,950.71
2023-03-26T00:27:31.991Z,950.68
2023-03-26T00:27:42.954Z,950.69
2023-03-26T00:27:53.721Z,950.71
2023-03-26T00:28:04.764Z,950.70
2023-03-26T00:28:15.736Z,950.66
2023-03-26T00:28:26.493Z,950.65
2023-03-26T00:28:37.540Z,950.67
2023-03-26T00:28:48.509Z,950.67
2023-03-26T00:28:59.268Z,950.69
2023-03-26T00:29:10.318Z,950.70
2023-03-26T00:29:21.282Z,950.69
2023-03-26T00:29:32.055Z,950.70
2023-03-26T00:29:43.113Z,950.69
2023-03-26T00:29:54.068Z,950.67
2023-03-26T00:30:04.841Z,950.67
2023-03-26T00:30:15.882Z,950.68
2023-03-26T00:30:26.852Z,950.68
2023-03-26T00:30:37.637Z,950.67
2023-03-26T00:30:48.701Z,950.66
2023-03-26T00:30:59.695Z,950.66
2023-03-26T00:31:10.507Z,950.67
2023-03-26T00:31:21.041Z,950.67
2023-03-26T00:31:32.017Z,950.66
2023-03-26T00:31:42.781Z,950.67
2023-03-26T00:31:53.825Z,950.66
2023-03-26T00:32:04.792Z,950.65
2023-03-26T00:32:15.573Z,950.66
2023-03-26T00:32:26.639Z,950.66
2023-03-26T00:32:37.604Z,950.65
2023-03-26T00:32:53.496Z,950.64
2023-03-26T00:33:00.460Z,950.63
2023-03-26T00:33:10.339Z,950.65
2023-03-26T00:33:21.097Z,950.66
2023-03-26T00:33:32.125Z,950.66
2023-03-26T00:33:43.092Z,950.67
2023-03-26T00:33:53.854Z,950.67
2023-03-26T00:34:04.900Z,950.66
2023-03-26T00:34:16.028Z,950.65
2023-03-26T00:34:26.783Z,950.65
2023-03-26T00:34:37.824Z,950.66
2023-03-26T00:34:48.784Z,950.66
2023-03-26T00:34:59.545Z,950.66
2023-03-26T00:35:10.591Z,950.67
2023-03-26T00:35:21.557Z,950.69
2023-03-26T00:35:32.362Z,950.67
2023-03-26T00:35:43.411Z,950.66
2023-03-26T00:35:54.513Z,950.65
2023-03-26T00:36:05.393Z,950.65
2023-03-26T00:36:16.479Z,950.67
2023-03-26T00:36:27.457Z,950.65
2023-03-26T00:36:38.191Z,950.65
2023-03-26T00:36:49.262Z,950.63
2023-03-26T00:37:00.234Z,950.62
2023-03-26T00:37:10.995Z,950.60
2023-03-26T00:37:22.054Z,950.62
2023-03-26T00:37:33.020Z,950.62
2023-03-26T00:37:43.835Z,950.62
2023-03-26T00:37:54.882Z,950.62
2023-03-26T00:38:05.846Z,950.63
2023-03-26T00:38:16.632Z,950.62
2023-03-26T00:38:27.662Z,950.62
2023-03-26T00:38:38.626Z,950.62
2023-03-26T00:38:49.390Z,950.60
2023-03-26T00:39:00.439Z,950.61
2023-03-26T00:39:11.402Z,950.60
2023-03-26T00:39:22.170Z,950.60
2023-03-26T00:39:33.212Z,950.60
2023-03-26T00:39:44.183Z,950.62
2023-03-26T00:39:54.940Z,950.62
2023-03-26T00:40:07.008Z,950.61
2023-03-26T00:40:16.899Z,950.59
2023-03-26T00:40:27.670Z,950.61
2023-03-26T00:40:38.712Z,950.60
2023-03-26T00:40:49.680Z,950.59
2023-03-26T00:41:00.443Z,950.60
2023-03-26T00:41:11.502Z,950.60
2023-03-26T00:41:22.473Z,950.59
2023-03-26T00:41:33.235Z,950.60
2023-03-26T00:41:44.308Z,950.58
2023-03-26T00:41:55.257Z,950.56
2023-03-26T00:42:06.019Z,950.57
2023-03-26T00:42:17.062Z,950.59
2023-03-26T00:42:28.045Z,950.59
2023-03-26T00:42:38.802Z,950.61
2023-03-26T00:42:49.845Z,950.62
2023-03-26T00:43:00.811Z,950.62
2023-03-26T00:43:11.584Z,950.58
2023-03-26T00:43:22.640Z,950.53
2023-03-26T00:43:33.598Z,950.53
2023-03-26T00:43:44.364Z,950.54
2023-03-26T00:43:55.407Z,950.56
2023-03-26T00:44:06.379Z,950.57
2023-03-26T00:44:17.140Z,950.57
2023-03-26T00:44:28.191Z,950.58
2023-03-26T00:44:39.159Z,950.59
2023-03-26T00:44:49.917Z,950.60
2023-03-26T00:45:00.960Z,950.59
2023-03-26T00:45:11.929Z,950.59
2023-03-26T00:45:22.689Z,950.59
2023-03-26T00:45:33.736Z,950.58
2023-03-26T00:45:44.733Z,950.58
2023-03-26T00:45:55.701Z,950.59
2023-03-26T00:46:06.361Z,950.57
2023-03-26T00:46:17.605Z,950.57
2023-03-26T00:46:28.412Z,950.58
2023-03-26T00:46:39.456Z,950.58
2023-03-26T00:46:50.377Z,950.58
2023-03-26T00:47:01.163Z,950.58
2023-03-26T00:47:12.208Z,950.57
2023-03-26T00:47:23.171Z,950.57
2023-03-26T00:47:33.981Z,950.54
2023-03-26T00:47:45.018Z,950.50
2023-03-26T00:47:56.001Z,950.50
2023-03-26T00:48:06.780Z,950.53
2023-03-26T00:48:17.270Z,950.55
2023-03-26T00:48:41.835Z,950.56
2023-03-26T00:48:45.133Z,950.56
2023-03-26T00:48:51.174Z,950.54
2023-03-26T00:49:01.064Z,950.56
2023-03-26T00:49:11.833Z,950.56
2023-03-26T00:49:22.875Z,950.55
2023-03-26T00:49:33.852Z,950.54
2023-03-26T00:49:44.609Z,950.53
2023-03-26T00:49:55.658Z,950.54
2023-03-26T00:50:06.618Z,950.55
2023-03-26T00:50:17.380Z,950.55
2023-03-26T00:50:28.426Z,950.54
2023-03-26T00:50:39.394Z,950.55
2023-03-26T00:50:50.159Z,950.55
2023-03-26T00:51:01.215Z,950.53
2023-03-26T00:51:12.172Z,950.51
2023-03-26T00:51:22.938Z,950.53
2023-03-26T00:51:34.108Z,950.52
2023-03-26T00:51:44.587Z,950.53
2023-03-26T00:51:55.348Z,950.52
2023-03-26T00:52:06.406Z,950.52
2023-03-26T00:52:17.371Z,950.52
2023-03-26T00:52:28.138Z,950.51
2023-03-26T00:52:39.189Z,950.52
2023-03-26T00:52:50.157Z,950.51
2023-03-26T00:53:00.920Z,950.51
2023-03-26T00:53:11.963Z,950.51
2023-03-26T00:53:22.933Z,950.51
2023-03-26T00:53:33.692Z,950.53
2023-03-26T00:53:44.771Z,950.53
2023-03-26T00:53:55.708Z,950.52
2023-03-26T00:54:06.477Z,950.50
2023-03-26T00:54:17.519Z,950.51
2023-03-26T00:54:28.501Z,950.50
2023-03-26T00:54:39.253Z,950.49
2023-03-26T00:54:50.302Z,950.49
2023-03-26T00:55:01.260Z,950.50
2023-03-26T00:55:12.022Z,950.49
2023-03-26T00:55:23.067Z,950.48
2023-03-26T00:55:34.034Z,950.46
2023-03-26T00:55:44.814Z,950.46
2023-03-26T00:55:55.959Z,950.45
2023-03-26T00:56:06.912Z,950.45
2023-03-26T00:56:17.678Z,950.44
2023-03-26T00:56:28.222Z,950.43
2023-03-26T00:56:39.251Z,950.42
2023-03-26T00:56:50.020Z,950.43
2023-03-26T00:57:00.547Z,950.44
2023-03-26T00:57:11.529Z,950.44
2023-03-26T00:57:34.568Z,950.45
2023-03-26T00:57:36.276Z,950.46
2023-03-26T00:57:44.171Z,950.48
2023-03-26T00:57:54.927Z,950.48
2023-03-26T00:58:05.979Z,950.48
2023-03-26T00:58:16.943Z,950.47
2023-03-26T00:58:27.715Z,950.47
2023-03-26T00:58:38.758Z,950.47
2023-03-26T00:58:49.716Z,950.47
2023-03-26T00:59:00.482Z,950.46
2023-03-26T00:59:11.535Z,950.47
2023-03-26T00:59:22.489Z,950.48
2023-03-26T00:59:33.264Z,950.47
2023-03-26T00:59:44.305Z,950.47
2023-03-26T00:59:55.265Z,950.46
2023-03-26T01:00:06.030Z,950.48
2023-03-26T01:00:17.183Z,950.47
2023-03-26T01:00:28.082Z,950.47
2023-03-26T01:00:38.843Z,950.46
2023-03-26T01:00:49.888Z,950.46
2023-03-26T01:01:00.866Z,950.44
2023-03-26T01:01:11.656Z,950.43
2023-03-26T01:01:22.682Z,950.44
2023-03-26T01:01:33.699Z,950.44
2023-03-26T01:01:44.475Z,950.43
2023-03-26T01:01:55.508Z,950.42
2023-03-26T01:02:06.453Z,950.42
2023-03-26T01:02:17.293Z,950.43
2023-03-26T01:02:27.841Z,950.42
2023-03-26T01:02:38.853Z,950.43
2023-03-26T01:02:49.702Z,950.42
2023-03-26T01:03:00.265Z,950.42
2023-03-26T01:03:12.940Z,950.41
2023-03-26T01:03:26.939Z,950.42
2023-03-26T01:03:33.269Z,950.41
2023-03-26T01:03:50.344Z,950.42
2023-03-26T01:04:07.447Z,950.40
2023-03-26T01:04:09.149Z,950.42
2023-03-26T01:04:17.213Z,950.41
2023-03-26T01:04:28.605Z,950.41
2023-03-26T01:04:38.787Z,950.43
2023-03-26T01:04:49.358Z,950.44
2023-03-26T01:05:00.139Z,950.43
2023-03-26T01:05:11.221Z,950.43
2023-03-26T01:05:22.187Z,950.43
2023-03-26T01:05:32.901Z,950.42
2023-03-26T01:05:43.951Z,950.43
2023-03-26T01:05:55.101Z,950.41
2023-03-26T01:06:05.919Z,950.42
2023-03-26T01:06:16.959Z,950.43
2023-03-26T01:06:27.991Z,950.43
2023-03-26T01:06:38.726Z,950.44
2023-03-26T01:06:49.759Z,950.43
2023-03-26T01:07:00.722Z,950.41
2023-03-26T01:07:11.487Z,950.40
2023-03-26T01:07:22.541Z,950.40
2023-03-26T01:07:33.508Z,950.39
2023-03-26T01:07:44.274Z,950.39
2023-03-26T01:07:55.328Z,950.40
2023-03-26T01:08:06.313Z,950.40
2023-03-26T01:08:17.082Z,950.38
2023-03-26T01:08:28.129Z,950.37
2023-03-26T01:08:39.095Z,950.36
2023-03-26T01:08:49.860Z,950.36
2023-03-26T01:09:00.900Z,950.35
2023-03-26T01:09:11.869Z,950.35
2023-03-26T01:09:22.631Z,950.36
2023-03-26T01:09:33.685Z,950.37
2023-03-26T01:09:44.638Z,950.37
2023-03-26T01:09:55.402Z,950.37
2023-03-26T01:10:06.450Z,950.38
2023-03-26T01:10:17.415Z,950.39
2023-03-26T01:10:28.179Z,950.39
2023-03-26T01:10:39.224Z,950.38
2023-03-26T01:10:50.188Z,950.39
2023-03-26T01:11:00.954Z,950.41
2023-03-26T01:11:11.995Z,950.39
2023-03-26T01:11:22.960Z,950.40
2023-03-26T01:11:33.731Z,950.42
2023-03-26T01:11:44.763Z,950.44
2023-03-26T01:11:55.736Z,950.44
2023-03-26T01:12:06.505Z,950.44
2023-03-26T01:12:17.546Z,950.42
2023-03-26T01:12:28.516Z,950.41
2023-03-26T01:12:39.279Z,950.44
2023-03-26T01:12:50.324Z,950.44
2023-03-26T01:13:01.291Z,950.44
2023-03-26T01:13:12.055Z,950.44
2023-03-26T01:13:23.109Z,950.46
2023-03-26T01:13:34.070Z,950.46
2023-03-26T01:13:44.827Z,950.46
2023-03-26T01:13:55.876Z,950.45
2023-03-26T01:14:06.834Z,950.45
2023-03-26T01:14:17.607Z,950.44
2023-03-26T01:14:28.650Z,950.43
2023-03-26T01:14:39.613Z,950.43
2023-03-26T01:14:51.189Z,950.42
2023-03-26T01:15:01.370Z,950.41
2023-03-26T01:15:12.333Z,950.40
2023-03-26T01:15:23.115Z,950.40
2023-03-26T01:15:34.166Z,950.41
2023-03-26T01:15:45.146Z,950.42
2023-03-26T01:15:56.082Z,950.42
2023-03-26T01:16:06.757Z,950.43
2023-03-26T01:16:17.884Z,950.43
2023-03-26T01:16:28.620Z,950.44
2023-03-26T01:16:39.668Z,950.44
2023-03-26T01:16:50.630Z,950.46
2023-03-26T01:17:01.402Z,950.46
2023-03-26T01:17:12.478Z,950.45
2023-03-26T01:17:23.432Z,950.46
2023-03-26T01:17:34.329Z,950.46
2023-03-26T01:17:44.901Z,950.47
2023-03-26T01:17:55.880Z,950.47
2023-03-26T01:18:06.606Z,950.46
2023-03-26T01:18:17.653Z,950.47
2023-03-26T01:18:28.619Z,950.48
2023-03-26T01:18:39.402Z,950.49
2023-03-26T01:18:50.431Z,950.49
2023-03-26T01:19:01.402Z,950.49
2023-03-26T01:19:12.167Z,950.49
2023-03-26T01:19:23.209Z,950.47
2023-03-26T01:19:34.193Z,950.47
2023-03-26T01:19:45.126Z,950.49
2023-03-26T01:19:55.657Z,950.48
2023-03-26T01:20:06.629Z,950.49
2023-03-26T01:20:17.401Z,950.48
2023-03-26T01:20:28.442Z,950.48
2023-03-26T01:20:39.408Z,950.49
2023-03-26T01:20:50.180Z,950.49
2023-03-26T01:21:01.221Z,950.48
2023-03-26T01:21:12.185Z,950.48
2023-03-26T01:21:22.998Z,950.48
2023-03-26T01:21:34.006Z,950.48
2023-03-26T01:21:44.976Z,950.48
2023-03-26T01:21:55.736Z,950.49
2023-03-26T01:22:06.780Z,950.49
2023-03-26T01:22:17.746Z,950.50
2023-03-26T01:22:28.515Z,950.51
2023-03-26T01:22:39.570Z,950.50
2023-03-26T01:22:50.537Z,950.50
2023-03-26T01:23:01.298Z,950.51
2023-03-26T01:23:12.360Z,950.53
2023-03-26T01:23:23.383Z,950.52
2023-03-26T01:23:34.146Z,950.50
2023-03-26T01:23:45.192Z,950.50
2023-03-26T01:23:56.158Z,950.49
2023-03-26T01:24:06.921Z,950.51
2023-03-26T01:24:17.967Z,950.51
2023-03-26T01:24:28.953Z,950.53
2023-03-26T01:24:39.706Z,950.52
2023-03-26T01:24:50.739Z,950.50
2023-03-26T01:25:01.704Z,950.50
2023-03-26T01:25:12.488Z,950.49
2023-03-26T01:25:23.523Z,950.50
2023-03-26T01:25:34.484Z,950.52
2023-03-26T01:25:45.249Z,950.52
2023-03-26T01:25:56.572Z,950.53
2023-03-26T01:26:07.028Z,950.51
2023-03-26T01:26:17.809Z,950.50
2023-03-26T01:26:28.834Z,950.50
2023-03-26T01:26:39.822Z,950.51
2023-03-26T01:26:50.572Z,950.52
2023-03-26T01:27:01.615Z,950.52
2023-03-26T01:27:12.583Z,950.53
2023-03-26T01:27:23.348Z,950.52
2023-03-26T01:27:34.392Z,950.52
2023-03-26T01:27:45.367Z,950.51
2023-03-26T01:27:56.152Z,950.51
2023-03-26T01:28:07.177Z,950.53
2023-03-26T01:28:18.156Z,950.52
2023-03-26T01:28:28.928Z,950.52
2023-03-26T01:28:39.966Z,950.52
2023-03-26T01:28:50.928Z,950.50
2023-03-26T01:29:01.704Z,950.51
2023-03-26T01:29:12.737Z,950.51
2023-03-26T01:29:23.703Z,950.52
2023-03-26T01:29:34.471Z,950.52
2023-03-26T01:29:45.520Z,950.53
2023-03-26T01:29:56.501Z,950.51
2023-03-26T01:30:07.253Z,950.52
2023-03-26T01:30:18.313Z,950.51
2023-03-26T01:30:29.264Z,950.52
2023-03-26T01:30:40.027Z,950.53
2023-03-26T01:30:51.073Z,950.52
2023-03-26T01:31:02.070Z,950.51
2023-03-26T01:31:12.832Z,950.51
2023-03-26T01:31:23.879Z,950.51
2023-03-26T01:31:34.846Z,950.50
2023-03-26T01:31:45.604Z,950.51
2023-03-26T01:31:56.651Z,950.50
2023-03-26T01:32:07.618Z,950.49
2023-03-26T01:32:18.407Z,950.49
2023-03-26T01:32:29.586Z,950.50
2023-03-26T01:32:40.149Z,950.50
2023-03-26T01:32:51.056Z,950.49
2023-03-26T01:33:01.585Z,950.50
2023-03-26T01:33:12.633Z,950.50
2023-03-26T01:33:23.518Z,950.50
2023-03-26T01:33:34.215Z,950.48
2023-03-26T01:33:44.733Z,950.49
2023-03-26T01:33:55.567Z,950.49
2023-03-26T01:34:06.617Z,950.48
2023-03-26T01:34:17.573Z,950.48
2023-03-26T01:34:28.340Z,950.47
2023-03-26T01:34:39.382Z,950.48
2023-03-26T01:34:50.349Z,950.47
2023-03-26T01:35:01.109Z,950.47
2023-03-26T01:35:12.153Z,950.47
2023-03-26T01:35:23.199Z,950.46
2023-03-26T01:35:33.996Z,950.47
2023-03-26T01:35:45.090Z,950.45
2023-03-26T01:35:56.199Z,950.45
2023-03-26T01:36:07.094Z,950.46
2023-03-26T01:36:18.102Z,950.46
2023-03-26T01:36:29.070Z,950.44
2023-03-26T01:36:39.835Z,950.43
2023-03-26T01:36:50.891Z,950.43
2023-03-26T01:37:01.850Z,950.42
2023-03-26T01:37:12.624Z,950.41
2023-03-26T01:37:23.670Z,950.42
2023-03-26T01:37:34.629Z,950.41
2023-03-26T01:37:45.393Z,950.41
2023-03-26T01:37:56.447Z,950.40
2023-03-26T01:38:07.424Z,950.40
2023-03-26T01:38:18.192Z,950.39
2023-03-26T01:38:29.243Z,950.39
2023-03-26T01:38:40.214Z,950.38
2023-03-26T01:38:50.985Z,950.37
2023-03-26T01:39:02.040Z,950.37
2023-03-26T01:39:12.996Z,950.38
2023-03-26T01:39:23.754Z,950.37
2023-03-26T01:39:34.803Z,950.37
2023-03-26T01:39:45.766Z,950.37
2023-03-26T01:39:56.545Z,950.36
2023-03-26T01:40:07.579Z,950.35
2023-03-26T01:40:18.541Z,950.33
2023-03-26T01:40:29.304Z,950.34
2023-03-26T01:40:40.416Z,950.36
2023-03-26T01:40:51.327Z,950.35
2023-03-26T01:41:02.091Z,950.34
2023-03-26T01:41:13.142Z,950.32
2023-03-26T01:41:24.109Z,950.33
2023-03-26T01:41:34.890Z,950.33
2023-03-26T01:41:45.918Z,950.33
2023-03-26T01:41:56.886Z,950.32
2023-03-26T01:42:07.651Z,950.32
2023-03-26T01:42:18.697Z,950.33
2023-03-26T01:42:29.663Z,950.34
2023-03-26T01:42:40.425Z,950.34
2023-03-26T01:42:51.475Z,950.32
2023-03-26T01:43:02.449Z,950.33
2023-03-26T01:43:13.213Z,950.34
2023-03-26T01:43:24.270Z,950.34
2023-03-26T01:43:35.243Z,950.33
2023-03-26T01:43:46.005Z,950.33
2023-03-26T01:43:57.048Z,950.34
2023-03-26T01:44:08.016Z,950.34
2023-03-26T01:44:18.780Z,950.33
2023-03-26T01:44:29.823Z,950.32
2023-03-26T01:44:40.789Z,950.31
2023-03-26T01:44:51.559Z,950.32
2023-03-26T01:45:02.607Z,950.30
2023-03-26T01:45:13.570Z,950.30
2023-03-26T01:45:24.339Z,950.30
2023-03-26T01:45:35.395Z,950.30
2023-03-26T01:45:46.347Z,950.30
2023-03-26T01:45:57.169Z,950.30
2023-03-26T01:46:07.681Z,950.29
2023-03-26T01:46:18.649Z,950.29
2023-03-26T01:46:29.420Z,950.29
2023-03-26T01:46:40.513Z,950.28
2023-03-26T01:46:51.484Z,950.29
2023-03-26T01:47:02.216Z,950.29
2023-03-26T01:47:13.260Z,950.28
2023-03-26T01:47:24.262Z,950.27
2023-03-26T01:47:35.052Z,950.29
2023-03-26T01:47:46.086Z,950.27
2023-03-26T01:47:57.066Z,950.28
2023-03-26T01:48:07.806Z,950.29
2023-03-26T01:48:18.848Z,950.28
2023-03-26T01:48:29.815Z,950.27
2023-03-26T01:48:40.592Z,950.27
2023-03-26T01:48:51.649Z,950.29
2023-03-26T01:49:02.601Z,950.29
2023-03-26T01:49:13.705Z,950.28
2023-03-26T01:49:24.324Z,950.26
2023-03-26T01:49:35.292Z,950.26
2023-03-26T01:49:46.051Z,950.27
2023-03-26T01:49:57.091Z,950.28
2023-03-26T01:50:08.063Z,950.28
2023-03-26T01:50:18.829Z,950.27
2023-03-26T01:50:29.876Z,950.26
2023-03-26T01:50:40.836Z,950.25
2023-03-26T01:50:51.607Z,950.26
2023-03-26T01:51:02.657Z,950.24
2023-03-26T01:51:13.619Z,950.23
2023-03-26T01:51:24.386Z,950.25
2023-03-26T01:51:35.433Z,950.25
2023-03-26T01:51:46.393Z,950.24
2023-03-26T01:51:57.160Z,950.23
2023-03-26T01:52:08.202Z,950.23
2023-03-26T01:52:19.172Z,950.23
2023-03-26T01:52:29.933Z,950.25
2023-03-26T01:52:40.983Z,950.24
2023-03-26T01:52:51.943Z,950.23
2023-03-26T01:53:02.716Z,950.23
2023-03-26T01:53:13.764Z,950.23
2023-03-26T01:53:24.735Z,950.23
2023-03-26T01:53:35.509Z,950.22
2023-03-26T01:53:46.556Z,950.22
2023-03-26T01:53:57.531Z,950.21
2023-03-26T01:54:08.290Z,950.21
2023-03-26T01:54:19.340Z,950.20
2023-03-26T01:54:30.310Z,950.21
2023-03-26T01:54:41.069Z,950.21
2023-03-26T01:54:52.116Z,950.20
2023-03-26T01:55:03.087Z,950.20
2023-03-26T01:55:13.846Z,950.21
2023-03-26T01:55:24.892Z,950.20
2023-03-26T01:55:35.862Z,950.21
2023-03-26T01:55:46.619Z,950.20
2023-03-26T01:55:57.667Z,950.21
2023-03-26T01:56:08.627Z,950.20
2023-03-26T01:56:19.405Z,950.20
2023-03-26T01:56:30.487Z,950.20
2023-03-26T01:56:41.538Z,950.17
2023-03-26T01:56:52.363Z,950.18
2023-03-26T01:57:02.900Z,950.17
2023-03-26T01:57:13.922Z,950.18
2023-03-26T01:57:24.651Z,950.18
2023-03-26T01:57:35.698Z,950.18
2023-03-26T01:57:46.656Z,950.19
2023-03-26T01:57:57.423Z,950.19
2023-03-26T01:58:08.464Z,950.18
2023-03-26T01:58:19.454Z,950.19
2023-03-26T01:58:30.228Z,950.19
2023-03-26T01:58:41.264Z,950.19
2023-03-26T01:58:52.254Z,950.19
2023-03-26T01:59:03.014Z,950.20
2023-03-26T01:59:14.065Z,950.23
2023-03-26T01:59:25.029Z,950.22
2023-03-26T01:59:35.816Z,950.22
2023-03-26T01:59:46.863Z,950.22
2023-03-26T01:59:57.830Z,950.24
2023-03-26T02:00:08.590Z,950.25
2023-03-26T02:00:19.636Z,950.24
2023-03-26T02:00:30.607Z,950.24
2023-03-26T02:00:41.371Z,950.24
2023-03-26T02:00:52.409Z,950.24
2023-03-26T02:01:03.504Z,950.25
2023-03-26T02:01:14.262Z,950.25
2023-03-26T02:01:25.349Z,950.25
2023-03-26T02:01:36.432Z,950.25
2023-03-26T02:01:47.264Z,950.24
2023-03-26T02:01:58.331Z,950.25
2023-03-26T02:02:09.424Z,950.24
2023-03-26T02:02:20.311Z,950.25
2023-03-26T02:02:30.921Z,950.24
2023-03-26T02:02:41.539Z,950.25
2023-03-26T02:02:52.424Z,950.26
2023-03-26T02:03:02.947Z,950.27
2023-03-26T02:03:14.122Z,950.26
2023-03-26T02:03:25.085Z,950.25
2023-03-26T02:03:35.615Z,950.24
2023-03-26T02:03:46.582Z,950.22
2023-03-26T02:03:57.330Z,950.22
2023-03-26T02:04:08.363Z,950.23
2023-03-26T02:04:19.325Z,950.22
2023-03-26T02:04:30.089Z,950.22
2023-03-26T02:04:41.132Z,950.23
2023-03-26T02:04:52.103Z,950.22
2023-03-26T02:05:02.861Z,950.22
2023-03-26T02:05:13.911Z,950.22
2023-03-26T02:05:24.872Z,950.22
2023-03-26T02:05:35.638Z,950.21
2023-03-26T02:05:46.679Z,950.19
2023-03-26T02:05:57.641Z,950.17
2023-03-26T02:06:08.403Z,950.17
2023-03-26T02:06:19.454Z,950.18
2023-03-26T02:06:30.420Z,950.19
2023-03-26T02:06:41.186Z,950.18
2023-03-26T02:06:52.242Z,950.17
2023-03-26T02:07:03.198Z,950.16
2023-03-26T02:07:13.956Z,950.16
2023-03-26T02:07:25.002Z,950.15
2023-03-26T02:07:35.969Z,950.15
2023-03-26T02:07:46.731Z,950.16
2023-03-26T02:07:57.785Z,950.14
2023-03-26T02:08:08.748Z,950.14
2023-03-26T02:08:19.513Z,950.15
2023-03-26T02:08:30.575Z,950.15
2023-03-26T02:08:41.537Z,950.14
2023-03-26T02:08:52.301Z,950.16
2023-03-26T02:09:03.358Z,950.15
2023-03-26T02:09:14.333Z,950.15
2023-03-26T02:09:25.094Z,950.14
2023-03-26T02:09:36.144Z,950.11
2023-03-26T02:09:47.112Z,950.07
2023-03-26T02:09:57.866Z,950.07
2023-03-26T02:10:08.919Z,950.08
2023-03-26T02:10:19.890Z,950.09
2023-03-26T02:10:30.641Z,950.09
2023-03-26T02:10:41.687Z,950.07
2023-03-26T02:10:52.657Z,950.08
2023-03-26T02:11:03.428Z,950.09
2023-03-26T02:11:14.474Z,950.09
2023-03-26T02:11:34.686Z,950.07
2023-03-26T02:11:37.066Z,950.06
2023-03-26T02:11:47.018Z,950.04
2023-03-26T02:11:57.980Z,950.05
2023-03-26T02:12:08.746Z,950.05
2023-03-26T02:12:19.790Z,950.06
2023-03-26T02:12:30.757Z,950.06
2023-03-26T02:12:41.520Z,950.07
2023-03-26T02:12:52.579Z,950.07
2023-03-26T02:13:03.545Z,950.06
2023-03-26T02:13:14.310Z,950.06
2023-03-26T02:13:25.350Z,950.07
2023-03-26T02:13:36.331Z,950.07
2023-03-26T02:13:47.096Z,950.07
2023-03-26T02:13:58.154Z,950.08
2023-03-26T02:14:09.161Z,950.07
2023-03-26T02:14:19.924Z,950.07
2023-03-26T02:14:30.976Z,950.06
2023-03-26T02:14:41.938Z,950.07
2023-03-26T02:14:52.701Z,950.07
2023-03-26T02:15:03.744Z,950.07
2023-03-26T02:15:14.717Z,950.09
2023-03-26T02:15:25.487Z,950.09
2023-03-26T02:15:36.522Z,950.08
2023-03-26T02:15:47.554Z,950.07
2023-03-26T02:15:58.325Z,950.07
2023-03-26T02:16:09.352Z,950.07